Time;durP1;ratioP1;P1;durP2;ratioP2;P2;SDS_P1;SDS_P2;PMS_P1;PMS_P2;Temp;Humidity;BMP_temperature;BMP_pressure;BME280_temperature;BME280_humidity;BME280_pressure;Samples;Min_cycle;Max_cycle;Signal;HPM_P1;HPM_P2
2022/04/24 00:00:09;;;;;;;10.25;6.97;;;10.10;99.90;;;;;;5033132;28;20053;-75
2022/04/24 00:02:35;;;;;;;10.55;6.75;;;10.10;99.90;;;;;;5033427;28;20049;-75
2022/04/24 00:05:02;;;;;;;14.25;7.35;;;10.00;99.90;;;;;;5037010;28;20052;-75
2022/04/24 00:07:27;;;;;;;9.43;6.88;;;10.00;99.90;;;;;;5052597;28;20064;-75
2022/04/24 00:09:53;;;;;;;11.80;6.47;;;10.00;99.90;;;;;;5041716;28;20037;-76
2022/04/24 00:12:18;;;;;;;9.60;6.25;;;10.00;99.90;;;;;;5053228;28;20044;-75
2022/04/24 00:14:48;;;;;;;9.52;6.30;;;10.00;99.90;;;;;;5051492;28;20140;-75
2022/04/24 00:17:15;;;;;;;10.48;6.30;;;9.90;99.90;;;;;;5053048;28;20511;-75
2022/04/24 00:19:42;;;;;;;9.32;6.07;;;9.90;99.90;;;;;;5051516;28;20076;-75
2022/04/24 00:22:07;;;;;;;8.57;6.45;;;9.90;99.90;;;;;;5052673;28;20500;-75
2022/04/24 00:24:33;;;;;;;11.13;6.18;;;9.90;99.90;;;;;;5028641;28;20059;-75
2022/04/24 00:26:59;;;;;;;11.18;6.78;;;9.80;99.90;;;;;;5031834;28;20077;-75
2022/04/24 00:29:25;;;;;;;10.43;6.10;;;9.80;99.90;;;;;;5031115;28;20049;-75
2022/04/24 00:31:51;;;;;;;15.73;6.47;;;9.80;99.90;;;;;;5052360;28;20094;-75
2022/04/24 00:34:16;;;;;;;9.57;6.15;;;9.70;99.90;;;;;;5072772;28;20044;-75
2022/04/24 00:36:43;;;;;;;10.70;7.03;;;9.70;99.90;;;;;;5063145;28;20041;-75
2022/04/24 00:39:09;;;;;;;9.63;6.35;;;9.70;99.90;;;;;;5038598;28;20107;-75
2022/04/24 00:41:35;;;;;;;10.68;6.30;;;9.70;99.90;;;;;;5068634;28;20048;-75
2022/04/24 00:44:00;;;;;;;8.52;6.57;;;9.60;99.90;;;;;;5072502;28;20048;-75
2022/04/24 00:46:40;;;;;;;10.13;6.28;;;9.60;99.90;;;;;;5071270;28;20043;-75
2022/04/24 00:49:07;;;;;;;10.60;6.40;;;9.60;99.90;;;;;;5072697;28;20476;-75
2022/04/24 00:51:33;;;;;;;10.07;6.63;;;9.60;99.90;;;;;;5047380;28;20037;-75
2022/04/24 00:53:59;;;;;;;10.07;7.05;;;9.50;99.90;;;;;;5033004;28;20444;-75
2022/04/24 00:56:30;;;;;;;9.80;6.60;;;9.50;99.90;;;;;;5032132;28;20041;-75
2022/04/24 00:59:01;;;;;;;11.65;6.63;;;9.50;99.90;;;;;;5032320;28;20496;-75
2022/04/24 01:01:27;;;;;;;9.18;6.30;;;9.40;99.90;;;;;;5038612;28;20057;-75
2022/04/24 01:03:54;;;;;;;9.20;6.13;;;9.40;99.90;;;;;;5051284;28;20125;-75
2022/04/24 01:06:19;;;;;;;8.55;6.38;;;9.40;99.90;;;;;;5035201;28;20045;-75
2022/04/24 01:08:45;;;;;;;9.00;6.13;;;9.30;99.90;;;;;;5034878;28;20050;-75
2022/04/24 01:11:10;;;;;;;9.23;6.75;;;9.30;99.90;;;;;;5051300;28;20057;-75
2022/04/24 01:13:36;;;;;;;13.07;6.22;;;9.30;99.90;;;;;;5050573;28;20099;-75
2022/04/24 01:16:01;;;;;;;12.77;6.93;;;9.30;99.90;;;;;;5052350;28;20079;-75
2022/04/24 01:18:29;;;;;;;11.38;6.78;;;9.20;99.90;;;;;;5051278;28;20503;-75
2022/04/24 01:20:54;;;;;;;13.70;6.93;;;9.20;99.90;;;;;;5046094;28;20064;-74
2022/04/24 01:23:20;;;;;;;11.10;7.45;;;9.20;99.90;;;;;;5045944;28;20041;-75
2022/04/24 01:25:45;;;;;;;12.23;7.38;;;9.20;99.90;;;;;;5051529;28;20154;-75
2022/04/24 01:28:11;;;;;;;9.38;6.88;;;9.10;99.90;;;;;;5052168;28;20075;-75
2022/04/24 01:30:36;;;;;;;10.63;7.40;;;9.10;99.90;;;;;;5051650;28;20048;-75
2022/04/24 01:33:03;;;;;;;12.15;7.78;;;9.10;99.90;;;;;;5061402;28;20477;-75
2022/04/24 01:35:30;;;;;;;11.13;7.65;;;9.00;99.90;;;;;;5031774;28;20044;-75
2022/04/24 01:37:58;;;;;;;11.90;7.20;;;9.00;99.90;;;;;;5032083;28;20045;-75
2022/04/24 01:40:24;;;;;;;10.85;7.63;;;8.90;99.90;;;;;;5054387;28;20049;-75
2022/04/24 01:42:49;;;;;;;11.15;7.13;;;8.90;99.90;;;;;;5071693;28;20044;-75
2022/04/24 01:45:15;;;;;;;13.00;7.80;;;8.90;99.90;;;;;;5071551;28;20124;-75
2022/04/24 01:47:41;;;;;;;10.73;7.60;;;8.80;99.90;;;;;;5053074;28;20041;-75
2022/04/24 01:50:06;;;;;;;10.60;7.00;;;8.80;99.90;;;;;;5034324;28;20034;-75
2022/04/24 01:52:32;;;;;;;10.45;7.18;;;8.80;99.90;;;;;;5051535;28;20045;-75
2022/04/24 01:54:57;;;;;;;11.52;8.55;;;8.80;99.90;;;;;;5051241;28;20500;-75
2022/04/24 01:57:23;;;;;;;10.95;7.82;;;8.70;99.90;;;;;;5051683;28;20702;-75
2022/04/24 01:59:49;;;;;;;10.05;7.43;;;8.70;99.90;;;;;;5050687;28;20496;-75
2022/04/24 02:02:14;;;;;;;11.93;7.43;;;8.70;99.90;;;;;;5038263;28;20056;-75
2022/04/24 02:04:40;;;;;;;10.80;7.88;;;8.70;99.90;;;;;;5031423;28;20053;-75
2022/04/24 02:07:06;;;;;;;10.52;7.63;;;8.60;99.90;;;;;;5050597;28;20035;-75
2022/04/24 02:09:33;;;;;;;11.73;7.90;;;8.60;99.90;;;;;;5051058;28;20052;-75
2022/04/24 02:11:59;;;;;;;11.65;7.45;;;8.60;99.90;;;;;;5050212;28;20091;-75
2022/04/24 02:14:25;;;;;;;13.10;7.90;;;8.50;99.90;;;;;;5070935;28;20072;-75
2022/04/24 02:16:50;;;;;;;10.27;7.28;;;8.50;99.90;;;;;;5035727;28;20041;-75
2022/04/24 02:19:16;;;;;;;11.65;7.80;;;8.50;99.90;;;;;;5030489;28;20056;-75
2022/04/24 02:21:41;;;;;;;10.25;7.63;;;8.40;99.90;;;;;;5050421;28;20088;-75
2022/04/24 02:24:07;;;;;;;10.40;7.38;;;8.40;99.90;;;;;;5046372;28;20052;-75
2022/04/24 02:26:33;;;;;;;11.82;7.78;;;8.40;99.90;;;;;;5050832;28;20041;-75
2022/04/24 02:28:58;;;;;;;11.18;7.85;;;8.40;99.90;;;;;;5048968;28;20381;-75
2022/04/24 02:31:24;;;;;;;12.60;7.72;;;8.30;99.90;;;;;;5043188;28;20041;-75
2022/04/24 02:33:49;;;;;;;13.70;8.85;;;8.30;99.90;;;;;;5069554;28;20498;-75
2022/04/24 02:36:15;;;;;;;12.20;7.65;;;8.30;99.90;;;;;;5069417;28;20048;-75
2022/04/24 02:38:41;;;;;;;11.38;8.05;;;8.20;99.90;;;;;;5067556;28;20107;-75
2022/04/24 02:41:06;;;;;;;13.07;8.63;;;8.20;99.90;;;;;;5051021;28;20045;-75
2022/04/24 02:43:32;;;;;;;12.18;7.97;;;8.20;99.90;;;;;;5043406;28;20041;-75
2022/04/24 02:45:57;;;;;;;12.55;8.48;;;8.20;99.90;;;;;;5029827;28;20065;-75
2022/04/24 02:48:26;;;;;;;13.25;8.38;;;8.10;99.90;;;;;;5031027;28;20046;-75
2022/04/24 02:50:52;;;;;;;11.57;7.80;;;8.10;99.90;;;;;;5039531;28;20049;-75
2022/04/24 02:53:17;;;;;;;11.60;8.55;;;8.10;99.90;;;;;;5049250;28;20139;-74
2022/04/24 02:55:43;;;;;;;13.27;8.60;;;8.00;99.90;;;;;;5049495;28;20044;-75
2022/04/24 02:58:08;;;;;;;13.57;8.27;;;8.00;99.90;;;;;;5040499;28;20029;-75
2022/04/24 03:00:42;;;;;;;13.35;8.38;;;8.00;99.90;;;;;;5028863;28;20054;-75
2022/04/24 03:03:08;;;;;;;14.30;8.35;;;7.90;99.90;;;;;;5046784;28;20053;-75
2022/04/24 03:05:35;;;;;;;12.40;8.10;;;7.90;99.90;;;;;;5049198;28;20477;-75
2022/04/24 03:08:00;;;;;;;11.80;7.60;;;7.90;99.90;;;;;;5049188;28;20511;-75
2022/04/24 03:10:28;;;;;;;10.88;7.63;;;7.90;99.90;;;;;;5061025;28;20029;-75
2022/04/24 03:12:54;;;;;;;16.00;8.65;;;7.90;99.90;;;;;;5035170;28;20053;-75
2022/04/24 03:15:19;;;;;;;11.40;8.23;;;7.90;99.90;;;;;;5030898;28;20041;-75
2022/04/24 03:17:45;;;;;;;14.27;7.63;;;7.80;99.90;;;;;;5030015;28;20275;-75
2022/04/24 03:20:13;;;;;;;13.23;8.10;;;7.90;99.90;;;;;;5038802;28;20048;-75
2022/04/24 03:22:39;;;;;;;10.85;7.75;;;7.80;99.90;;;;;;5046040;28;20053;-75
2022/04/24 03:25:07;;;;;;;11.52;8.52;;;7.80;99.90;;;;;;5049709;28;20401;-75
2022/04/24 03:27:33;;;;;;;15.07;7.97;;;7.80;99.90;;;;;;5031398;28;20096;-75
2022/04/24 03:29:58;;;;;;;11.75;8.55;;;7.80;99.90;;;;;;5034570;28;20081;-75
2022/04/24 03:32:24;;;;;;;13.93;8.27;;;7.80;99.90;;;;;;5062469;28;20128;-75
2022/04/24 03:34:50;;;;;;;10.55;7.57;;;7.80;99.90;;;;;;5073688;28;20514;-75
2022/04/24 03:37:16;;;;;;;12.02;8.45;;;7.80;99.90;;;;;;5074287;28;20477;-75
2022/04/24 03:39:41;;;;;;;12.38;8.20;;;7.80;99.90;;;;;;5056171;28;20056;-75
2022/04/24 03:42:07;;;;;;;14.88;7.82;;;7.80;99.90;;;;;;5053118;28;20417;-75
2022/04/24 03:44:33;;;;;;;12.85;7.57;;;7.70;99.90;;;;;;5053797;28;20085;-75
2022/04/24 03:46:59;;;;;;;15.63;8.43;;;7.70;99.90;;;;;;5053652;28;20115;-75
2022/04/24 03:49:28;;;;;;;11.63;7.78;;;7.70;99.90;;;;;;5053437;28;20485;-75
2022/04/24 03:51:53;;;;;;;13.13;7.57;;;7.70;99.90;;;;;;5053998;28;20049;-75
2022/04/24 03:54:20;;;;;;;12.95;8.05;;;7.70;99.90;;;;;;5044050;28;20040;-75
2022/04/24 03:56:45;;;;;;;12.68;7.82;;;7.60;99.90;;;;;;5032088;28;20057;-75
2022/04/24 03:59:11;;;;;;;11.75;8.45;;;7.70;99.90;;;;;;5048327;28;20060;-75
2022/04/24 04:01:36;;;;;;;12.07;8.07;;;7.60;99.90;;;;;;5052727;28;20076;-75
2022/04/24 04:04:02;;;;;;;13.10;7.65;;;7.60;99.90;;;;;;5053739;28;20431;-75
2022/04/24 04:06:28;;;;;;;11.57;7.82;;;7.60;99.90;;;;;;5069307;28;20032;-75
2022/04/24 04:08:54;;;;;;;12.15;8.15;;;7.60;99.90;;;;;;5045067;28;20077;-75
2022/04/24 04:11:19;;;;;;;11.02;6.97;;;7.60;99.90;;;;;;5045269;28;20814;-75
2022/04/24 04:13:45;;;;;;;12.02;7.65;;;7.60;99.90;;;;;;5052512;28;20041;-75
2022/04/24 04:16:11;;;;;;;13.55;7.50;;;7.60;99.90;;;;;;5053492;28;20098;-75
2022/04/24 04:18:36;;;;;;;12.55;6.97;;;7.50;99.90;;;;;;5052836;28;20455;-75
2022/04/24 04:21:02;;;;;;;14.68;7.93;;;7.60;99.90;;;;;;5052824;28;20112;-75
2022/04/24 04:23:27;;;;;;;12.43;7.80;;;7.50;99.90;;;;;;5030339;28;20038;-75
2022/04/24 04:25:53;;;;;;;10.90;7.32;;;7.50;99.90;;;;;;5033485;28;20046;-75
2022/04/24 04:28:19;;;;;;;13.85;7.50;;;7.50;99.90;;;;;;5032858;28;20049;-75
2022/04/24 04:30:44;;;;;;;14.02;7.47;;;7.50;99.90;;;;;;5032462;28;20045;-75
2022/04/24 04:33:10;;;;;;;11.63;7.60;;;7.50;99.90;;;;;;5071680;28;20040;-75
2022/04/24 04:35:36;;;;;;;13.80;8.27;;;7.50;99.90;;;;;;5069280;28;20040;-75
2022/04/24 04:38:02;;;;;;;11.57;7.30;;;7.50;99.90;;;;;;5050916;28;20053;-75
2022/04/24 04:40:28;;;;;;;13.52;7.55;;;7.50;99.90;;;;;;5051354;28;20041;-75
2022/04/24 04:42:53;;;;;;;11.55;7.05;;;7.50;99.90;;;;;;5051363;28;20048;-75
2022/04/24 04:45:19;;;;;;;11.35;7.95;;;7.50;99.90;;;;;;5052987;28;20569;-75
2022/04/24 04:47:47;;;;;;;14.23;8.43;;;7.50;99.90;;;;;;5050873;28;20078;-75
2022/04/24 04:50:13;;;;;;;12.18;7.22;;;7.50;99.90;;;;;;5045968;28;20496;-75
2022/04/24 04:52:38;;;;;;;11.43;7.47;;;7.50;99.90;;;;;;5031006;28;20124;-75
2022/04/24 04:55:04;;;;;;;11.35;7.00;;;7.50;99.90;;;;;;5044593;28;20049;-75
2022/04/24 04:57:30;;;;;;;11.52;7.38;;;7.50;99.90;;;;;;5050359;28;20103;-76
2022/04/24 04:59:56;;;;;;;11.07;6.70;;;7.50;99.90;;;;;;5052495;28;20049;-75
2022/04/24 05:02:21;;;;;;;11.27;6.57;;;7.60;99.90;;;;;;5055825;28;20056;-75
2022/04/24 05:04:47;;;;;;;12.02;6.88;;;7.70;99.90;;;;;;5039538;28;20127;-75
2022/04/24 05:07:13;;;;;;;13.35;7.35;;;7.70;99.90;;;;;;5030958;28;20049;-75
2022/04/24 05:09:39;;;;;;;12.18;6.95;;;7.80;99.90;;;;;;5032444;28;20050;-75
2022/04/24 05:12:05;;;;;;;10.35;7.07;;;7.80;99.90;;;;;;5050778;28;20040;-75
2022/04/24 05:14:31;;;;;;;12.05;7.18;;;7.90;99.90;;;;;;5052054;28;20045;-75
2022/04/24 05:16:57;;;;;;;11.52;7.40;;;7.90;99.90;;;;;;5050521;28;20076;-75
2022/04/24 05:19:23;;;;;;;13.18;7.75;;;8.00;99.90;;;;;;5051842;28;20052;-75
2022/04/24 05:21:49;;;;;;;12.52;7.63;;;8.00;99.90;;;;;;5052026;28;20045;-75
2022/04/24 05:24:14;;;;;;;13.80;7.60;;;8.10;99.90;;;;;;5045201;28;20111;-75
2022/04/24 05:26:40;;;;;;;12.63;7.82;;;8.10;99.90;;;;;;5051712;28;20396;-75
2022/04/24 05:29:07;;;;;;;12.43;7.13;;;8.10;99.90;;;;;;5051847;28;20049;-75
2022/04/24 05:31:32;;;;;;;11.05;7.55;;;8.20;99.90;;;;;;5057793;28;20529;-75
2022/04/24 05:33:58;;;;;;;12.00;8.60;;;8.20;99.90;;;;;;5046959;28;20045;-75
2022/04/24 05:36:23;;;;;;;12.57;8.23;;;8.20;99.90;;;;;;5050490;28;20048;-75
2022/04/24 05:38:49;;;;;;;13.15;7.68;;;8.30;99.90;;;;;;5050836;28;20036;-75
2022/04/24 05:41:14;;;;;;;16.85;8.77;;;8.40;99.90;;;;;;5050383;28;20140;-75
2022/04/24 05:43:40;;;;;;;14.52;8.10;;;8.50;99.90;;;;;;5051408;28;20037;-75
2022/04/24 05:46:05;;;;;;;14.75;8.00;;;8.50;99.90;;;;;;5047519;28;20045;-75
2022/04/24 05:48:31;;;;;;;15.02;8.65;;;8.60;99.90;;;;;;5030288;28;20061;-75
2022/04/24 05:50:57;;;;;;;14.88;7.90;;;8.60;99.90;;;;;;5041421;28;20048;-75
2022/04/24 05:53:23;;;;;;;12.75;8.07;;;8.70;99.90;;;;;;5051025;28;20051;-75
2022/04/24 05:55:49;;;;;;;13.25;7.63;;;8.70;99.90;;;;;;5050017;28;20056;-75
2022/04/24 05:58:14;;;;;;;11.63;8.00;;;8.80;99.90;;;;;;5061871;28;20044;-75
2022/04/24 06:00:40;;;;;;;13.75;8.48;;;8.90;99.90;;;;;;5055523;28;20654;-75
2022/04/24 06:03:06;;;;;;;12.30;8.07;;;9.00;99.90;;;;;;5030156;28;20452;-75
2022/04/24 06:05:31;;;;;;;13.57;7.72;;;9.00;99.90;;;;;;5030015;28;20048;-75
2022/04/24 06:07:57;;;;;;;13.98;7.85;;;9.10;99.90;;;;;;5031239;28;20049;-75
2022/04/24 06:10:22;;;;;;;14.73;8.20;;;9.20;99.90;;;;;;5036957;28;20502;-75
2022/04/24 06:12:52;;;;;;;14.60;8.90;;;9.20;99.90;;;;;;5051081;28;20047;-75
2022/04/24 06:15:21;;;;;;;13.45;7.95;;;9.30;99.90;;;;;;5038870;28;20041;-75
2022/04/24 06:17:49;;;;;;;12.50;7.97;;;9.40;99.90;;;;;;5030170;28;20076;-75
2022/04/24 06:20:16;;;;;;;13.95;7.40;;;9.80;99.90;;;;;;5039406;28;20111;-75
2022/04/24 06:22:53;;;;;;;12.95;7.57;;;9.40;99.90;;;;;;5046060;28;20047;-75
2022/04/24 06:25:23;;;;;;;14.57;7.85;;;9.50;99.90;;;;;;5051332;28;20053;-75
2022/04/24 06:27:50;;;;;;;10.82;6.93;;;9.50;99.90;;;;;;5050621;28;20508;-75
2022/04/24 06:30:17;;;;;;;12.88;7.03;;;9.50;99.90;;;;;;5046810;28;20051;-75
2022/04/24 06:32:43;;;;;;;11.13;6.13;;;9.60;99.90;;;;;;5066434;28;20500;-75
2022/04/24 06:35:11;;;;;;;13.10;6.63;;;9.60;99.90;;;;;;5070492;28;20565;-75
2022/04/24 06:37:38;;;;;;;10.30;6.15;;;9.60;99.90;;;;;;5070757;28;20048;-75
2022/04/24 06:40:08;;;;;;;11.10;5.45;;;9.60;99.90;;;;;;5053826;28;20049;-75
2022/04/24 06:43:00;;;;;;;10.65;6.10;;;9.60;99.90;;;;;;5050325;28;20045;-75
2022/04/24 06:45:28;;;;;;;10.45;5.43;;;9.60;99.90;;;;;;5051183;28;20136;-75
2022/04/24 06:47:58;;;;;;;10.27;5.88;;;9.60;99.90;;;;;;5050767;28;20037;-75
2022/04/24 06:50:25;;;;;;;8.63;5.00;;;9.70;99.90;;;;;;5049683;28;20552;-76
2022/04/24 06:53:01;;;;;;;7.70;4.53;;;9.70;99.90;;;;;;5050393;28;20041;-75
2022/04/24 06:55:31;;;;;;;11.02;4.03;;;9.80;99.90;;;;;;5068358;28;20094;-75
2022/04/24 06:57:58;;;;;;;8.45;4.32;;;9.90;99.90;;;;;;5039114;28;20393;-76
2022/04/24 07:00:25;;;;;;;9.98;4.32;;;10.00;99.90;;;;;;5030615;28;20052;-76
2022/04/24 07:02:51;;;;;;;8.38;4.20;;;10.10;99.90;;;;;;5030591;28;20488;-76
2022/04/24 07:05:20;;;;;;;9.10;3.75;;;10.30;99.90;;;;;;5033206;28;20406;-76
2022/04/24 07:07:45;;;;;;;8.80;4.25;;;10.30;99.90;;;;;;5034389;28;20135;-76
2022/04/24 07:10:11;;;;;;;10.63;3.63;;;10.30;99.90;;;;;;5038647;28;20159;-75
2022/04/24 07:12:47;;;;;;;7.22;3.20;;;10.30;99.90;;;;;;5034498;28;20116;-75
2022/04/24 07:15:13;;;;;;;6.13;3.35;;;10.20;99.90;;;;;;5034501;28;20050;-76
2022/04/24 07:17:41;;;;;;;6.68;3.42;;;10.30;99.90;;;;;;5033470;28;20047;-75
2022/04/24 07:20:07;;;;;;;8.18;4.32;;;10.30;99.90;;;;;;5041787;28;20037;-76
2022/04/24 07:22:43;;;;;;;7.00;2.97;;;10.40;99.90;;;;;;5049672;28;20049;-76
2022/04/24 07:25:09;;;;;;;8.35;3.47;;;10.40;99.90;;;;;;5053439;28;20037;-76
2022/04/24 07:27:34;;;;;;;6.28;2.97;;;10.40;99.90;;;;;;5053782;28;20489;-75
2022/04/24 07:30:00;;;;;;;7.80;3.40;;;10.40;99.90;;;;;;5054187;28;20048;-76
2022/04/24 07:32:25;;;;;;;8.55;2.67;;;10.50;99.90;;;;;;5066442;28;20097;-76
2022/04/24 07:34:51;;;;;;;5.55;2.28;;;10.60;99.90;;;;;;5070639;28;20116;-76
2022/04/24 07:37:17;;;;;;;6.25;2.78;;;10.60;99.90;;;;;;5053873;28;20045;-75
2022/04/24 07:39:42;;;;;;;6.32;2.80;;;10.70;99.90;;;;;;5053248;28;20132;-76
2022/04/24 07:42:08;;;;;;;4.95;2.40;;;10.80;99.90;;;;;;5052894;28;20041;-76
2022/04/24 07:44:33;;;;;;;7.53;2.53;;;10.90;99.90;;;;;;5052696;28;20099;-75
2022/04/24 07:46:59;;;;;;;4.60;2.67;;;10.90;99.90;;;;;;5053917;28;20037;-76
2022/04/24 07:49:24;;;;;;;5.45;3.00;;;11.00;99.90;;;;;;5052344;28;20098;-75
2022/04/24 07:51:50;;;;;;;6.93;2.78;;;11.00;99.90;;;;;;5072508;28;20037;-76
2022/04/24 07:54:15;;;;;;;6.95;3.10;;;11.10;99.90;;;;;;5041428;28;20037;-76
2022/04/24 07:56:42;;;;;;;5.20;2.83;;;11.10;99.90;;;;;;5033258;28;20378;-76
2022/04/24 07:59:07;;;;;;;8.15;2.75;;;11.20;99.90;;;;;;5033214;28;20052;-75
2022/04/24 08:01:33;;;;;;;6.85;3.08;;;11.10;99.90;;;;;;5031842;28;20053;-76
2022/04/24 08:03:58;;;;;;;6.13;3.03;;;11.10;99.90;;;;;;5033839;28;20052;-76
2022/04/24 08:06:24;;;;;;;6.85;2.92;;;11.10;99.90;;;;;;5033433;28;20128;-76
2022/04/24 08:08:49;;;;;;;7.03;2.80;;;11.10;99.90;;;;;;5033382;28;20049;-76
2022/04/24 08:11:15;;;;;;;7.30;3.28;;;11.30;99.90;;;;;;5047092;28;20055;-76
2022/04/24 08:13:40;;;;;;;8.18;3.33;;;11.30;99.90;;;;;;5052699;28;20128;-76
2022/04/24 08:16:06;;;;;;;5.03;2.92;;;11.50;99.90;;;;;;5053367;28;20135;-76
2022/04/24 08:18:32;;;;;;;6.80;3.25;;;11.60;99.90;;;;;;5053146;28;20140;-76
2022/04/24 08:20:57;;;;;;;8.88;3.22;;;11.80;99.90;;;;;;5047066;28;20045;-75
2022/04/24 08:23:25;;;;;;;5.50;2.63;;;11.90;99.90;;;;;;5044873;28;20041;-76
2022/04/24 08:25:51;;;;;;;5.78;2.60;;;12.10;99.90;;;;;;5033522;28;20088;-76
2022/04/24 08:28:17;;;;;;;7.10;2.90;;;12.30;99.90;;;;;;5032511;28;20076;-76
2022/04/24 08:30:44;;;;;;;6.05;3.20;;;12.50;99.90;;;;;;5031471;28;20057;-76
2022/04/24 08:33:10;;;;;;;12.85;3.20;;;12.60;99.90;;;;;;5053215;28;20127;-76
2022/04/24 08:35:36;;;;;;;6.85;2.85;;;12.70;99.90;;;;;;5047940;28;20143;-76
2022/04/24 08:38:02;;;;;;;7.55;3.28;;;12.80;99.90;;;;;;5051553;28;20087;-76
2022/04/24 08:40:28;;;;;;;7.38;3.13;;;12.90;99.90;;;;;;5052504;28;20041;-76
2022/04/24 08:42:57;;;;;;;6.05;2.83;;;12.90;99.90;;;;;;5050962;28;20043;-76
2022/04/24 08:45:27;;;;;;;10.05;3.30;;;13.10;99.90;;;;;;5052428;28;20551;-76
2022/04/24 08:47:54;;;;;;;6.88;2.95;;;13.10;99.90;;;;;;5067344;28;20140;-76
2022/04/24 08:50:20;;;;;;;7.20;3.17;;;13.20;99.90;;;;;;5043093;28;20037;-76
2022/04/24 08:52:47;;;;;;;5.20;2.55;;;13.30;99.90;;;;;;5031083;28;20064;-76
2022/04/24 08:55:12;;;;;;;7.13;3.95;;;13.40;99.90;;;;;;5032401;28;20085;-76
2022/04/24 08:57:38;;;;;;;8.07;3.20;;;13.50;99.40;;;;;;5032308;28;20084;-76
2022/04/24 09:00:08;;;;;;;5.40;2.60;;;13.60;99.10;;;;;;5031299;28;20049;-76
2022/04/24 09:02:35;;;;;;;7.80;3.00;;;13.70;99.50;;;;;;5031617;28;20071;-76
2022/04/24 09:05:00;;;;;;;7.22;2.85;;;13.80;99.60;;;;;;5032360;28;20136;-76
2022/04/24 09:07:31;;;;;;;7.30;3.38;;;13.90;99.20;;;;;;5032008;28;20128;-76
2022/04/24 09:09:58;;;;;;;6.22;2.88;;;14.00;99.00;;;;;;5033894;28;20074;-76
2022/04/24 09:12:25;;;;;;;10.25;3.22;;;14.20;98.60;;;;;;5052062;28;20496;-76
2022/04/24 09:14:58;;;;;;;6.22;2.72;;;14.20;97.80;;;;;;5052230;28;20045;-76
2022/04/24 09:17:29;;;;;;;6.03;2.90;;;14.30;97.30;;;;;;5047312;28;20486;-76
2022/04/24 09:19:56;;;;;;;7.50;2.75;;;14.40;97.60;;;;;;5052314;28;20090;-76
2022/04/24 09:22:22;;;;;;;7.55;2.92;;;14.50;97.30;;;;;;5047524;28;20044;-76
2022/04/24 09:24:57;;;;;;;6.43;2.80;;;14.60;96.90;;;;;;5050237;28;20554;-76
2022/04/24 09:27:26;;;;;;;8.25;3.22;;;14.70;97.00;;;;;;5052118;28;20060;-76
2022/04/24 09:29:55;;;;;;;8.52;3.00;;;14.90;95.80;;;;;;5051540;28;20048;-76
2022/04/24 09:32:22;;;;;;;7.18;2.85;;;15.00;95.60;;;;;;5048091;28;20060;-76
2022/04/24 09:34:48;;;;;;;5.78;2.72;;;15.00;94.60;;;;;;5051515;28;20520;-76
2022/04/24 09:37:14;;;;;;;7.43;3.75;;;15.10;95.20;;;;;;5051056;28;20041;-76
2022/04/24 09:39:40;;;;;;;9.30;2.90;;;15.20;94.90;;;;;;5051304;28;20044;-76
2022/04/24 09:42:13;;;;;;;6.93;2.88;;;15.30;95.40;;;;;;5052746;28;20047;-76
2022/04/24 09:44:41;;;;;;;5.85;2.65;;;15.40;94.80;;;;;;5070877;28;20093;-76
2022/04/24 09:47:07;;;;;;;5.70;2.67;;;15.50;95.00;;;;;;5033692;28;20197;-76
2022/04/24 09:49:41;;;;;;;7.30;2.67;;;15.70;95.10;;;;;;5031665;28;20049;-76
2022/04/24 09:52:12;;;;;;;6.47;2.78;;;15.80;94.30;;;;;;5031123;28;20456;-76
2022/04/24 09:54:40;;;;;;;9.98;3.45;;;15.90;94.00;;;;;;5031129;28;20501;-76
2022/04/24 09:57:08;;;;;;;5.10;2.67;;;16.00;94.30;;;;;;5030329;28;20080;-76
2022/04/24 09:59:39;;;;;;;6.40;2.80;;;16.10;93.00;;;;;;5030340;28;20496;-77
2022/04/24 10:02:08;;;;;;;7.38;2.75;;;16.20;93.70;;;;;;5031152;28;20054;-76
2022/04/24 10:04:36;;;;;;;6.30;2.33;;;16.30;93.20;;;;;;5031430;28;20045;-76
2022/04/24 10:07:06;;;;;;;5.50;2.65;;;16.30;92.90;;;;;;5031067;28;20048;-76
2022/04/24 10:09:37;;;;;;;4.28;2.40;;;16.40;92.70;;;;;;5031250;28;20049;-76
2022/04/24 10:12:06;;;;;;;6.57;3.30;;;16.40;92.00;;;;;;5030983;28;20038;-77
2022/04/24 10:14:36;;;;;;;6.15;2.60;;;16.50;91.80;;;;;;5039675;28;20140;-77
2022/04/24 10:17:28;;;;;;;6.82;2.90;;;16.60;92.80;;;;;;5051393;28;20067;-77
2022/04/24 10:20:32;;;;;;;4.70;2.63;;;16.70;91.50;;;;;;5050472;28;20477;-77
2022/04/24 10:22:59;;;;;;;5.85;3.15;;;16.80;91.50;;;;;;5046382;28;20453;-77
2022/04/24 10:25:35;;;;;;;5.82;2.40;;;16.80;91.70;;;;;;5051494;28;20041;-77
2022/04/24 10:28:20;;;;;;;5.38;2.33;;;16.90;91.30;;;;;;5046726;28;20102;-74
2022/04/24 10:30:59;;;;;;;6.60;2.70;;;16.90;90.20;;;;;;5051635;28;20083;-74
2022/04/24 10:33:28;;;;;;;7.38;2.72;;;16.90;90.60;;;;;;5030160;28;20392;-75
2022/04/24 10:35:59;;;;;;;5.13;2.60;;;17.00;90.80;;;;;;5042399;28;20559;-76
2022/04/24 10:38:26;;;;;;;8.60;3.15;;;17.10;90.40;;;;;;5050882;28;20053;-76
2022/04/24 10:40:59;;;;;;;17.30;2.88;;;17.10;90.50;;;;;;5050140;28;20540;-76
2022/04/24 10:43:25;;;;;;;5.95;2.78;;;17.20;90.40;;;;;;5031097;28;20507;-76
2022/04/24 10:45:52;;;;;;;4.75;2.53;;;17.40;90.70;;;;;;5029372;28;20080;-76
2022/04/24 10:48:18;;;;;;;4.68;2.20;;;17.50;90.10;;;;;;5030568;28;20041;-76
2022/04/24 10:50:52;;;;;;;7.43;2.58;;;17.60;89.00;;;;;;5029319;28;20041;-76
2022/04/24 10:53:19;;;;;;;4.30;2.20;;;17.70;87.10;;;;;;5030930;28;20053;-76
2022/04/24 10:55:45;;;;;;;7.78;2.30;;;17.80;88.10;;;;;;5035108;28;20037;-76
2022/04/24 10:58:11;;;;;;;9.05;2.63;;;18.00;90.10;;;;;;5049316;28;20481;-76
2022/04/24 11:00:38;;;;;;;4.57;2.40;;;18.10;89.20;;;;;;5050061;28;20037;-76
2022/04/24 11:03:05;;;;;;;6.32;2.50;;;18.30;88.10;;;;;;5050127;28;20469;-76
2022/04/24 11:05:36;;;;;;;5.13;2.40;;;18.40;87.70;;;;;;5048925;28;20135;-76
2022/04/24 11:08:03;;;;;;;6.00;2.63;;;18.40;84.80;;;;;;5050769;28;20073;-76
2022/04/24 11:10:29;;;;;;;5.25;2.25;;;18.20;83.30;;;;;;5046256;28;20052;-76
2022/04/24 11:12:55;;;;;;;6.82;3.00;;;18.10;83.70;;;;;;5050700;28;20385;-76
2022/04/24 11:15:22;;;;;;;4.93;2.53;;;18.00;83.70;;;;;;5050016;28;20514;-76
2022/04/24 11:17:47;;;;;;;5.55;2.30;;;18.20;85.00;;;;;;5050616;28;20072;-76
2022/04/24 11:20:15;;;;;;;4.75;2.05;;;18.40;84.80;;;;;;5050488;28;20500;-76
2022/04/24 11:22:49;;;;;;;6.60;2.22;;;18.60;85.50;;;;;;5044932;28;20725;-76
2022/04/24 11:25:16;;;;;;;;;;;18.70;81.00;;;;;;5045790;28;20045;-77
2022/04/24 11:27:45;;;;;;;6.82;1.88;;;18.80;82.40;;;;;;5050027;28;19921;-76
2022/04/24 11:30:21;;;;;;;5.47;1.85;;;18.90;82.30;;;;;;5050017;28;20049;-76
2022/04/24 11:33:05;;;;;;;6.85;1.92;;;18.70;81.60;;;;;;5050546;28;20045;-76
2022/04/24 11:35:35;;;;;;;5.68;1.73;;;18.60;80.60;;;;;;5058788;28;20119;-76
2022/04/24 11:38:01;;;;;;;5.47;2.20;;;18.50;79.30;;;;;;5063963;28;20108;-76
2022/04/24 11:40:28;;;;;;;7.22;2.05;;;18.40;80.10;;;;;;5050326;28;20060;-76
2022/04/24 11:43:02;;;;;;;6.97;2.67;;;18.50;79.40;;;;;;5050151;28;20484;-75
2022/04/24 11:51:02;;;;;;;7.65;1.88;;;18.50;80.60;;;;;;5052460;28;20049;-76
2022/04/24 11:53:28;;;;;;;5.60;2.47;;;18.30;80.40;;;;;;5036224;28;20041;-75
2022/04/24 11:56:01;;;;;;;5.75;2.60;;;18.10;81.10;;;;;;5033961;28;20060;-75
2022/04/24 11:58:32;;;;;;;6.05;2.67;;;18.00;81.10;;;;;;5032758;28;20610;-75
2022/04/24 12:01:00;;;;;;;5.85;2.28;;;17.90;81.00;;;;;;5033340;28;20057;-75
2022/04/24 12:03:25;;;;;;;6.90;2.55;;;17.80;80.70;;;;;;5033696;28;20136;-76
2022/04/24 12:06:02;;;;;;;6.53;2.50;;;17.80;81.60;;;;;;5031747;28;20529;-76
2022/04/24 12:08:49;;;;;;;4.47;2.22;;;17.70;82.60;;;;;;5033384;28;20049;-76
2022/04/24 12:11:30;;;;;;;6.93;2.45;;;17.70;83.20;;;;;;5047403;28;20102;-76
2022/04/24 12:14:11;;;;;;;5.53;2.67;;;17.80;83.50;;;;;;5052996;28;20045;-76
2022/04/24 12:16:39;;;;;;;5.68;2.78;;;17.90;82.20;;;;;;5053243;28;20404;-76
2022/04/24 12:19:08;;;;;;;6.55;2.80;;;17.80;81.30;;;;;;5052696;28;20128;-76
2022/04/24 12:21:50;;;;;;;6.28;2.67;;;17.70;83.50;;;;;;5052848;28;20088;-76
2022/04/24 12:24:16;;;;;;;6.00;2.80;;;17.70;82.80;;;;;;5043648;28;20045;-76
2022/04/24 12:26:49;;;;;;;4.78;2.30;;;17.80;82.70;;;;;;5052604;28;20052;-76
2022/04/24 12:29:17;;;;;;;6.22;2.20;;;18.00;82.70;;;;;;5053060;28;20047;-76
2022/04/24 12:31:44;;;;;;;5.63;2.95;;;18.20;83.50;;;;;;5059852;28;20079;-76
2022/04/24 12:34:10;;;;;;;6.18;2.60;;;18.20;80.80;;;;;;5062467;28;20507;-76
2022/04/24 12:36:45;;;;;;;4.68;2.35;;;18.20;81.20;;;;;;5032604;28;20045;-76
2022/04/24 12:39:11;;;;;;;6.60;2.80;;;18.30;82.30;;;;;;5040208;28;20045;-76
2022/04/24 12:41:37;;;;;;;4.53;3.00;;;18.40;81.50;;;;;;5052213;28;20063;-76
2022/04/24 12:44:07;;;;;;;6.05;2.60;;;18.50;81.50;;;;;;5053030;28;20045;-76
2022/04/24 12:46:34;;;;;;;8.15;3.00;;;18.50;83.90;;;;;;5051185;28;20465;-75
2022/04/24 12:49:00;;;;;;;9.60;3.78;;;18.50;82.60;;;;;;5040846;28;20043;-76
2022/04/24 12:51:26;;;;;;;6.25;3.15;;;18.30;83.20;;;;;;5032681;28;20120;-76
2022/04/24 12:53:57;;;;;;;6.85;3.03;;;18.30;83.30;;;;;;5032360;28;20450;-76